Time;durP1;ratioP1;P1;durP2;ratioP2;P2;SDS_P1;SDS_P2;PMS_P1;PMS_P2;Temp;Humidity;BMP_temperature;BMP_pressure;BME280_temperature;BME280_humidity;BME280_pressure;Samples;Min_cycle;Max_cycle;Signal;HPM_P1;HPM_P2
2023/08/18 00:02:15;;;;;;;;;23.75;22.75;;;;;;;;5070436;28;50960;-61
2023/08/18 00:04:41;;;;;;;;;25.75;25.50;;;;;;;;5054872;28;51327;-61
2023/08/18 00:07:06;;;;;;;;;25.25;22.50;;;;;;;;5054884;28;51150;-61
2023/08/18 00:09:31;;;;;;;;;24.75;23.75;;;;;;;;5054738;28;51090;-61
2023/08/18 00:11:56;;;;;;;;;22.00;21.50;;;;;;;;5054768;28;50878;-61
2023/08/18 00:14:21;;;;;;;;;25.00;23.50;;;;;;;;5054447;28;51437;-61
2023/08/18 00:16:47;;;;;;;;;25.50;24.25;;;;;;;;5070045;28;51906;-62
2023/08/18 00:19:14;;;;;;;;;24.25;23.75;;;;;;;;5053873;28;51239;-61
2023/08/18 00:21:40;;;;;;;;;27.00;26.25;;;;;;;;5054611;28;50858;-61
2023/08/18 00:24:08;;;;;;;;;26.25;24.25;;;;;;;;5054271;28;50912;-62
2023/08/18 00:26:33;;;;;;;;;26.50;24.50;;;;;;;;5054107;28;52075;-61
2023/08/18 00:28:58;;;;;;;;;26.50;25.50;;;;;;;;5053692;28;51241;-62
2023/08/18 00:31:24;;;;;;;;;26.00;25.00;;;;;;;;5054410;28;51077;-62
2023/08/18 00:33:49;;;;;;;;;29.50;26.75;;;;;;;;5054049;28;51290;-62
2023/08/18 00:36:14;;;;;;;;;26.00;25.75;;;;;;;;5054228;28;51090;-62
2023/08/18 00:38:39;;;;;;;;;29.50;28.75;;;;;;;;5054060;28;51112;-65
2023/08/18 00:41:05;;;;;;;;;30.50;27.00;;;;;;;;5052486;28;51137;-62
2023/08/18 00:43:30;;;;;;;;;25.50;25.50;;;;;;;;5054367;28;51488;-62
2023/08/18 00:45:55;;;;;;;;;26.00;24.50;;;;;;;;5065431;28;52016;-62
2023/08/18 00:48:21;;;;;;;;;30.50;29.00;;;;;;;;5052903;28;51173;-61
2023/08/18 00:50:46;;;;;;;;;27.50;26.00;;;;;;;;5054078;28;50858;-61
2023/08/18 00:53:12;;;;;;;;;27.00;26.75;;;;;;;;5053959;28;51404;-61
2023/08/18 00:55:38;;;;;;;;;26.50;25.50;;;;;;;;5052634;28;51721;-61
2023/08/18 00:58:04;;;;;;;;;25.75;25.00;;;;;;;;5052785;28;51100;-61
2023/08/18 01:00:29;;;;;;;;;24.50;24.00;;;;;;;;5050853;28;51353;-62
2023/08/18 01:02:54;;;;;;;;;25.75;25.25;;;;;;;;5053774;28;51076;-62
2023/08/18 01:05:19;;;;;;;;;26.25;25.25;;;;;;;;5053502;28;52405;-62
2023/08/18 01:07:45;;;;;;;;;26.75;25.50;;;;;;;;5051750;28;51197;-61
2023/08/18 01:10:10;;;;;;;;;28.50;25.75;;;;;;;;5051499;28;51031;-61
2023/08/18 01:12:44;;;;;;;;;25.50;24.50;;;;;;;;5056906;28;50976;-62
2023/08/18 01:15:13;;;;;;;;;26.00;23.25;;;;;;;;5051645;28;50927;-61
2023/08/18 01:17:56;;;;;;;;;25.50;25.50;;;;;;;;5052356;28;51143;-61
2023/08/18 01:20:22;;;;;;;;;24.25;23.75;;;;;;;;5051895;28;50924;-61
2023/08/18 01:22:57;;;;;;;;;26.75;25.75;;;;;;;;5052187;28;50972;-61
2023/08/18 01:25:23;;;;;;;;;29.50;27.00;;;;;;;;5051808;28;51785;-61
2023/08/18 01:27:48;;;;;;;;;25.25;24.00;;;;;;;;5053136;28;50956;-61
2023/08/18 01:30:14;;;;;;;;;23.25;23.25;;;;;;;;5051819;28;51089;-61
2023/08/18 01:32:44;;;;;;;;;27.50;25.50;;;;;;;;5053123;28;51060;-62
2023/08/18 01:35:10;;;;;;;;;25.00;24.25;;;;;;;;5051727;28;51806;-61
2023/08/18 01:37:35;;;;;;;;;24.50;23.25;;;;;;;;5053292;28;50973;-61
2023/08/18 01:40:01;;;;;;;;;27.25;26.50;;;;;;;;5052614;28;50854;-64
2023/08/18 01:42:26;;;;;;;;;23.25;22.75;;;;;;;;5051274;28;51083;-61
2023/08/18 01:44:51;;;;;;;;;27.50;25.50;;;;;;;;5052745;28;51774;-62
2023/08/18 01:47:17;;;;;;;;;28.25;27.25;;;;;;;;5051552;28;51021;-61
2023/08/18 01:49:42;;;;;;;;;25.50;24.25;;;;;;;;5054686;28;51222;-61
2023/08/18 01:52:08;;;;;;;;;23.00;22.75;;;;;;;;5052063;28;51151;-61
2023/08/18 01:54:33;;;;;;;;;24.50;23.50;;;;;;;;5050827;28;51920;-61
2023/08/18 01:56:58;;;;;;;;;27.00;24.00;;;;;;;;5052761;28;50878;-61
2023/08/18 01:59:24;;;;;;;;;27.25;25.75;;;;;;;;5051468;28;50964;-61
2023/08/18 02:01:49;;;;;;;;;28.75;27.75;;;;;;;;5052115;28;51227;-62
2023/08/18 02:04:14;;;;;;;;;26.75;26.75;;;;;;;;5051605;28;51770;-61
2023/08/18 02:06:39;;;;;;;;;24.00;24.00;;;;;;;;5048854;28;51141;-61
2023/08/18 02:09:05;;;;;;;;;28.25;27.00;;;;;;;;5051463;28;51072;-61
2023/08/18 02:11:30;;;;;;;;;26.00;26.00;;;;;;;;5050885;28;51219;-61
2023/08/18 02:13:55;;;;;;;;;25.50;24.75;;;;;;;;5051236;28;51152;-61
2023/08/18 02:16:20;;;;;;;;;26.25;23.50;;;;;;;;5052364;28;51237;-62
2023/08/18 02:18:47;;;;;;;;;28.50;26.25;;;;;;;;5052576;28;51422;-61
2023/08/18 02:21:15;;;;;;;;;25.00;24.75;;;;;;;;5051744;28;51195;-61
2023/08/18 02:23:41;;;;;;;;;25.50;25.25;;;;;;;;5083961;28;50308;-62
2023/08/18 02:26:06;;;;;;;;;29.50;27.00;;;;;;;;5060358;28;51007;-62
2023/08/18 02:28:31;;;;;;;;;22.75;21.25;;;;;;;;5053099;28;50913;-62
2023/08/18 02:30:59;;;;;;;;;26.50;24.75;;;;;;;;5051946;28;51222;-61
2023/08/18 02:33:24;;;;;;;;;25.50;24.00;;;;;;;;5058701;28;50971;-62
2023/08/18 02:35:50;;;;;;;;;30.50;28.00;;;;;;;;5060200;28;50942;-61
2023/08/18 02:38:15;;;;;;;;;28.75;28.50;;;;;;;;5054833;28;51068;-62
2023/08/18 02:40:40;;;;;;;;;29.00;28.75;;;;;;;;5055461;28;51519;-62
2023/08/18 02:43:05;;;;;;;;;28.25;27.25;;;;;;;;5052600;28;51769;-62
2023/08/18 02:45:31;;;;;;;;;28.50;26.75;;;;;;;;5056021;28;51168;-62
2023/08/18 02:47:57;;;;;;;;;28.50;28.00;;;;;;;;5053888;28;51391;-62
2023/08/18 02:50:22;;;;;;;;;30.25;27.50;;;;;;;;5056440;28;51182;-61
2023/08/18 02:52:48;;;;;;;;;27.25;26.00;;;;;;;;5054758;28;51848;-62
2023/08/18 02:55:13;;;;;;;;;29.75;29.50;;;;;;;;5055773;28;51178;-62
2023/08/18 02:57:38;;;;;;;;;25.00;25.00;;;;;;;;5055283;28;51038;-61
2023/08/18 03:00:03;;;;;;;;;28.50;26.50;;;;;;;;5055575;28;51349;-61
2023/08/18 03:02:29;;;;;;;;;26.50;25.00;;;;;;;;5075835;28;50877;-61
2023/08/18 03:04:55;;;;;;;;;24.25;23.25;;;;;;;;5092852;28;10959;-62
2023/08/18 03:07:20;;;;;;;;;29.25;27.25;;;;;;;;5086229;28;50370;-62
2023/08/18 03:09:45;;;;;;;;;29.25;27.50;;;;;;;;5083599;28;42136;-62
2023/08/18 03:12:10;;;;;;;;;30.00;29.00;;;;;;;;5070448;28;50842;-61
2023/08/18 03:14:35;;;;;;;;;29.00;27.00;;;;;;;;5054471;28;51009;-62
2023/08/18 03:17:00;;;;;;;;;28.00;25.25;;;;;;;;5053065;28;51267;-62
2023/08/18 03:19:26;;;;;;;;;28.25;27.25;;;;;;;;5052076;28;50945;-61
2023/08/18 03:21:52;;;;;;;;;27.50;26.25;;;;;;;;5054489;28;51592;-62
2023/08/18 03:24:17;;;;;;;;;26.25;25.50;;;;;;;;5054312;28;50839;-62
2023/08/18 03:26:42;;;;;;;;;32.75;27.75;;;;;;;;5055767;28;51213;-62
2023/08/18 03:29:08;;;;;;;;;29.25;27.25;;;;;;;;5070214;28;50895;-62
2023/08/18 03:31:33;;;;;;;;;30.75;30.00;;;;;;;;5053514;28;52112;-62
2023/08/18 03:33:58;;;;;;;;;26.25;25.75;;;;;;;;5053600;28;50927;-62
2023/08/18 03:36:23;;;;;;;;;27.50;25.50;;;;;;;;5056437;28;50882;-62
2023/08/18 03:38:48;;;;;;;;;24.75;24.25;;;;;;;;5054646;28;51003;-62
2023/08/18 03:41:14;;;;;;;;;29.75;27.50;;;;;;;;5052981;28;51130;-62
2023/08/18 03:43:40;;;;;;;;;28.00;24.75;;;;;;;;5053834;28;50993;-62
2023/08/18 03:46:25;;;;;;;;;27.50;26.00;;;;;;;;5053145;28;51099;-62
2023/08/18 03:48:50;;;;;;;;;23.75;22.75;;;;;;;;5053378;27;51177;-62
2023/08/18 03:51:15;;;;;;;;;31.00;29.00;;;;;;;;5057955;28;51018;-62
2023/08/18 03:53:41;;;;;;;;;23.75;23.25;;;;;;;;5058405;28;50930;-62
2023/08/18 03:56:06;;;;;;;;;30.00;27.50;;;;;;;;5058587;28;51216;-63
2023/08/18 03:58:31;;;;;;;;;31.00;28.75;;;;;;;;5051804;28;51218;-62
2023/08/18 04:01:00;;;;;;;;;27.00;26.50;;;;;;;;5062672;28;52186;-62
2023/08/18 04:03:25;;;;;;;;;32.00;30.25;;;;;;;;5069791;28;50957;-62
2023/08/18 04:05:50;;;;;;;;;31.50;30.00;;;;;;;;5055645;28;50927;-62
2023/08/18 04:08:16;;;;;;;;;29.50;28.75;;;;;;;;5061614;28;50457;-62
2023/08/18 04:10:41;;;;;;;;;30.75;29.25;;;;;;;;5051959;28;52912;-61
2023/08/18 04:13:06;;;;;;;;;30.25;27.50;;;;;;;;5057203;28;50913;-62
2023/08/18 04:15:31;;;;;;;;;29.75;27.75;;;;;;;;5081014;28;50447;-60
2023/08/18 04:17:56;;;;;;;;;29.75;28.75;;;;;;;;5052521;28;51116;-62
2023/08/18 04:20:21;;;;;;;;;31.75;29.75;;;;;;;;5060005;28;51825;-62
2023/08/18 04:22:47;;;;;;;;;28.25;24.75;;;;;;;;5052915;28;51146;-62
2023/08/18 04:25:12;;;;;;;;;30.25;27.50;;;;;;;;5052413;28;51244;-62
2023/08/18 04:27:37;;;;;;;;;29.50;27.50;;;;;;;;5013678;28;1129498;-61
2023/08/18 04:30:03;;;;;;;;;27.50;27.50;;;;;;;;5053807;28;51010;-61
2023/08/18 04:32:28;;;;;;;;;28.00;26.25;;;;;;;;5053104;28;51835;-61
2023/08/18 04:34:54;;;;;;;;;27.50;26.75;;;;;;;;5052981;28;51004;-62
2023/08/18 04:37:19;;;;;;;;;29.50;27.25;;;;;;;;5053438;28;51334;-62
2023/08/18 04:39:44;;;;;;;;;30.25;28.25;;;;;;;;5053956;28;51996;-62
2023/08/18 04:42:09;;;;;;;;;30.25;30.00;;;;;;;;5052294;28;52002;-62
2023/08/18 04:44:34;;;;;;;;;29.25;28.50;;;;;;;;4840260;28;6400359;-61
2023/08/18 04:47:03;;;;;;;;;29.75;29.00;;;;;;;;5051406;28;50975;-62
2023/08/18 04:49:28;;;;;;;;;31.75;29.50;;;;;;;;5053937;28;51933;-61
2023/08/18 04:51:54;;;;;;;;;30.00;28.25;;;;;;;;5053224;28;50959;-62
2023/08/18 04:54:19;;;;;;;;;32.50;30.50;;;;;;;;5052974;28;51277;-61
2023/08/18 04:56:45;;;;;;;;;30.00;28.25;;;;;;;;5053423;28;51275;-62
2023/08/18 04:59:10;;;;;;;;;27.50;26.50;;;;;;;;5084522;28;51822;-62
2023/08/18 05:01:36;;;;;;;;;29.25;28.75;;;;;;;;5052956;28;50955;-62
2023/08/18 05:04:01;;;;;;;;;32.50;30.25;;;;;;;;5050220;28;51115;-61
2023/08/18 05:06:26;;;;;;;;;30.00;27.50;;;;;;;;5052705;28;51322;-61
2023/08/18 05:08:52;;;;;;;;;30.00;29.50;;;;;;;;5053411;28;51086;-62
2023/08/18 05:11:17;;;;;;;;;28.50;28.50;;;;;;;;5079141;28;50963;-61
2023/08/18 05:13:45;;;;;;;;;27.75;25.75;;;;;;;;5058973;28;51034;-61
2023/08/18 05:16:11;;;;;;;;;33.25;29.50;;;;;;;;5058312;28;50967;-62
2023/08/18 05:18:36;;;;;;;;;26.50;26.50;;;;;;;;5091497;28;12270;-61
2023/08/18 05:21:01;;;;;;;;;25.00;23.25;;;;;;;;5091726;28;8985;-62
2023/08/18 05:23:28;;;;;;;;;33.25;30.25;;;;;;;;5061076;28;50983;-61
2023/08/18 05:25:56;;;;;;;;;33.25;28.75;;;;;;;;5061090;28;51122;-62
2023/08/18 05:28:28;;;;;;;;;34.00;31.50;;;;;;;;5055060;28;50927;-62
2023/08/18 05:30:53;;;;;;;;;34.25;29.75;;;;;;;;5068521;28;50987;-62
2023/08/18 05:33:18;;;;;;;;;27.75;27.50;;;;;;;;5051636;28;51129;-61
2023/08/18 05:35:43;;;;;;;;;30.50;30.25;;;;;;;;5052826;28;50984;-61
2023/08/18 05:38:14;;;;;;;;;29.75;29.00;;;;;;;;5053331;28;51035;-61
2023/08/18 05:40:48;;;;;;;;;32.75;30.25;;;;;;;;5049361;28;51580;-61
2023/08/18 05:43:14;;;;;;;;;34.25;31.75;;;;;;;;5051118;28;50924;-62
2023/08/18 05:45:40;;;;;;;;;31.00;25.50;;;;;;;;5050000;28;51420;-62
2023/08/18 05:48:05;;;;;;;;;32.75;30.50;;;;;;;;5076953;28;32244;-62
2023/08/18 05:50:31;;;;;;;;;30.25;28.00;;;;;;;;5071235;27;31927;-61
2023/08/18 05:52:57;;;;;;;;;36.00;32.00;;;;;;;;5061745;28;50924;-62
2023/08/18 05:55:25;;;;;;;;;35.25;32.25;;;;;;;;5054026;28;51153;-61
2023/08/18 05:57:51;;;;;;;;;32.25;30.25;;;;;;;;5052292;28;52017;-61
2023/08/18 06:00:16;;;;;;;;;31.25;30.25;;;;;;;;5074771;28;50942;-61
2023/08/18 06:02:42;;;;;;;;;34.00;29.25;;;;;;;;5066800;28;51388;-61
2023/08/18 06:05:08;;;;;;;;;30.00;29.50;;;;;;;;5056924;28;51327;-61
2023/08/18 06:07:34;;;;;;;;;30.00;28.75;;;;;;;;5061514;27;51121;-61
2023/08/18 06:09:59;;;;;;;;;28.75;28.00;;;;;;;;5052842;28;51138;-61
2023/08/18 06:12:24;;;;;;;;;30.75;29.75;;;;;;;;5069648;28;51452;-61
2023/08/18 06:14:49;;;;;;;;;29.00;28.50;;;;;;;;5052649;28;51301;-60
2023/08/18 06:17:14;;;;;;;;;31.75;30.25;;;;;;;;4188344;28;19627887;-60
2023/08/18 06:19:54;;;;;;;;;;;;;;;;;;4157225;28;39703156;-60
2023/08/18 06:22:19;;;;;;;;;32.50;30.25;;;;;;;;5048960;28;51459;-61
2023/08/18 06:24:44;;;;;;;;;33.00;29.25;;;;;;;;5049375;28;51313;-61
2023/08/18 06:27:10;;;;;;;;;33.25;30.50;;;;;;;;5053452;28;50869;-61
2023/08/18 06:29:35;;;;;;;;;29.50;28.50;;;;;;;;5051296;28;51224;-61
2023/08/18 06:32:00;;;;;;;;;28.25;28.00;;;;;;;;5049206;28;51251;-61
2023/08/18 06:34:25;;;;;;;;;30.00;29.25;;;;;;;;5067348;28;50965;-61
2023/08/18 06:36:51;;;;;;;;;32.75;29.50;;;;;;;;5052035;28;51236;-61
2023/08/18 06:39:16;;;;;;;;;32.00;29.00;;;;;;;;5047472;28;51202;-63
2023/08/18 06:41:42;;;;;;;;;24.25;21.75;;;;;;;;5052021;28;51414;-63
2023/08/18 06:44:08;;;;;;;;;28.25;28.00;;;;;;;;5074856;28;50949;-63
2023/08/18 06:46:33;;;;;;;;;30.75;28.25;;;;;;;;5098423;28;9641;-63
2023/08/18 06:48:58;;;;;;;;;28.75;27.25;;;;;;;;5075574;28;8794;-62
2023/08/18 06:51:24;;;;;;;;;28.50;28.50;;;;;;;;5089904;28;8799;-62
2023/08/18 06:53:49;;;;;;;;;30.00;30.00;;;;;;;;5087482;28;8927;-62
2023/08/18 06:56:14;;;;;;;;;31.25;30.00;;;;;;;;5088574;28;8880;-62
2023/08/18 06:58:39;;;;;;;;;34.50;32.00;;;;;;;;5090201;28;8808;-62
2023/08/18 07:01:04;;;;;;;;;29.75;28.25;;;;;;;;5075432;28;51002;-61
2023/08/18 07:03:30;;;;;;;;;30.50;29.25;;;;;;;;5051732;28;51107;-61
2023/08/18 07:05:56;;;;;;;;;32.00;30.00;;;;;;;;5051928;28;51127;-61
2023/08/18 07:08:21;;;;;;;;;29.50;28.50;;;;;;;;5051186;28;51778;-62
2023/08/18 07:10:47;;;;;;;;;30.00;29.75;;;;;;;;5051473;28;52010;-62
2023/08/18 07:13:12;;;;;;;;;29.25;27.75;;;;;;;;5064843;28;51054;-61
2023/08/18 07:15:37;;;;;;;;;35.00;30.50;;;;;;;;5068732;28;31846;-61
2023/08/18 07:18:02;;;;;;;;;29.75;28.50;;;;;;;;5068690;28;32118;-62
2023/08/18 07:20:28;;;;;;;;;30.75;29.50;;;;;;;;5083686;28;32970;-61
2023/08/18 07:22:55;;;;;;;;;32.25;28.75;;;;;;;;5071677;28;31827;-62
2023/08/18 07:25:20;;;;;;;;;31.25;30.00;;;;;;;;5071780;28;31923;-62
2023/08/18 07:27:45;;;;;;;;;30.75;30.00;;;;;;;;5070081;28;50131;-62
2023/08/18 07:30:10;;;;;;;;;31.25;30.00;;;;;;;;5064322;28;51046;-61
2023/08/18 07:32:36;;;;;;;;;27.75;27.00;;;;;;;;5071634;28;31837;-62
2023/08/18 07:35:05;;;;;;;;;22.50;21.50;;;;;;;;5071834;28;31944;-61
2023/08/18 07:37:30;;;;;;;;;26.75;25.75;;;;;;;;5075488;28;31738;-61
2023/08/18 07:39:55;;;;;;;;;27.00;26.25;;;;;;;;5071109;28;32034;-61
2023/08/18 07:42:21;;;;;;;;;26.00;25.00;;;;;;;;5073965;28;38149;-61
2023/08/18 07:44:46;;;;;;;;;24.75;24.50;;;;;;;;5092708;28;8848;-63
2023/08/18 07:47:11;;;;;;;;;27.25;25.50;;;;;;;;5105802;28;42331;-61
2023/08/18 07:49:36;;;;;;;;;29.00;24.50;;;;;;;;5054159;28;51612;-61
2023/08/18 07:52:01;;;;;;;;;28.00;27.00;;;;;;;;5054485;28;51149;-61
2023/08/18 07:54:27;;;;;;;;;26.00;23.00;;;;;;;;5054421;28;51147;-61
2023/08/18 07:56:52;;;;;;;;;25.25;24.50;;;;;;;;5056303;28;51388;-61
2023/08/18 07:59:17;;;;;;;;;25.00;25.00;;;;;;;;5054183;28;52646;-61
2023/08/18 08:01:43;;;;;;;;;23.25;22.75;;;;;;;;5054074;28;50942;-62
2023/08/18 08:04:08;;;;;;;;;28.00;27.00;;;;;;;;5070032;28;51533;-62
2023/08/18 08:06:33;;;;;;;;;21.67;21.00;;;;;;;;5070119;28;51137;-61
2023/08/18 08:08:58;;;;;;;;;23.75;22.75;;;;;;;;5053941;28;51590;-61
2023/08/18 08:11:24;;;;;;;;;28.25;25.50;;;;;;;;5055296;28;50971;-66
2023/08/18 08:13:49;;;;;;;;;21.75;21.75;;;;;;;;5070912;28;51093;-61
2023/08/18 08:16:14;;;;;;;;;23.00;22.75;;;;;;;;5076793;28;51091;-62
2023/08/18 08:18:39;;;;;;;;;24.75;22.50;;;;;;;;5092008;28;8803;-63
2023/08/18 08:21:05;;;;;;;;;21.50;21.50;;;;;;;;5105738;28;8811;-62
2023/08/18 08:23:31;;;;;;;;;22.33;22.33;;;;;;;;5092214;28;8783;-63
2023/08/18 08:25:56;;;;;;;;;22.33;21.33;;;;;;;;5107812;27;9520;-63
2023/08/18 08:28:21;;;;;;;;;25.33;24.33;;;;;;;;5091918;28;8819;-64
2023/08/18 08:30:46;;;;;;;;;21.67;20.67;;;;;;;;5091929;28;8850;-63
2023/08/18 08:33:12;;;;;;;;;24.25;22.75;;;;;;;;5090697;28;8779;-64
2023/08/18 08:35:37;;;;;;;;;22.00;21.50;;;;;;;;5092016;28;9501;-63
2023/08/18 08:38:03;;;;;;;;;23.25;23.25;;;;;;;;5092649;28;8811;-61
2023/08/18 08:40:28;;;;;;;;;20.67;19.67;;;;;;;;5092340;28;8839;-63
2023/08/18 08:42:56;;;;;;;;;21.00;21.00;;;;;;;;5092559;28;8779;-62
2023/08/18 08:45:25;;;;;;;;;19.00;18.33;;;;;;;;5079973;28;8773;-63
2023/08/18 08:47:51;;;;;;;;;21.00;19.00;;;;;;;;5084756;28;50326;-62
2023/08/18 08:50:17;;;;;;;;;22.00;21.00;;;;;;;;5055142;28;50932;-62
2023/08/18 08:52:48;;;;;;;;;22.67;21.33;;;;;;;;5053217;28;51113;-62
2023/08/18 08:55:16;;;;;;;;;18.67;18.67;;;;;;;;5047458;28;51440;-62
2023/08/18 08:57:41;;;;;;;;;18.00;18.00;;;;;;;;5052429;28;51931;-62
2023/08/18 09:00:07;;;;;;;;;18.00;18.00;;;;;;;;5053258;28;50871;-62
2023/08/18 09:02:32;;;;;;;;;23.50;23.25;;;;;;;;5048271;28;50913;-62
2023/08/18 09:05:00;;;;;;;;;30.00;27.25;;;;;;;;5074788;28;50838;-63
2023/08/18 09:07:26;;;;;;;;;50.75;42.50;;;;;;;;5091693;28;8856;-63
2023/08/18 09:09:51;;;;;;;;;44.50;37.00;;;;;;;;5091485;28;11456;-62
2023/08/18 09:12:17;;;;;;;;;30.00;28.75;;;;;;;;5091853;28;8843;-63
2023/08/18 09:14:43;;;;;;;;;19.67;19.67;;;;;;;;5091616;28;8791;-63
2023/08/18 09:17:09;;;;;;;;;23.67;22.67;;;;;;;;5091577;28;9393;-63
2023/08/18 09:19:34;;;;;;;;;19.67;19.33;;;;;;;;5092026;28;9559;-63
2023/08/18 09:22:00;;;;;;;;;19.00;19.00;;;;;;;;5091578;28;8807;-63
2023/08/18 09:24:26;;;;;;;;;15.67;15.00;;;;;;;;5090214;28;8807;-63
2023/08/18 09:26:51;;;;;;;;;19.67;19.33;;;;;;;;5107028;28;9382;-63
2023/08/18 09:29:17;;;;;;;;;17.33;17.33;;;;;;;;5091367;28;8815;-61
2023/08/18 09:31:45;;;;;;;;;17.00;16.00;;;;;;;;5091018;28;8800;-63
2023/08/18 09:34:23;;;;;;;;;19.67;19.00;;;;;;;;5073954;28;51021;-62
2023/08/18 09:36:52;;;;;;;;;18.33;18.33;;;;;;;;5063703;28;51180;-62
2023/08/18 09:39:18;;;;;;;;;20.00;18.67;;;;;;;;5052564;28;50916;-63
2023/08/18 09:41:45;;;;;;;;;19.00;19.00;;;;;;;;5054775;28;50885;-63
2023/08/18 09:44:10;;;;;;;;;20.33;20.00;;;;;;;;5052659;28;51451;-62
2023/08/18 09:46:36;;;;;;;;;17.33;17.33;;;;;;;;5052490;28;51313;-61
2023/08/18 09:49:04;;;;;;;;;18.67;17.00;;;;;;;;5052278;28;50976;-62
2023/08/18 09:51:30;;;;;;;;;19.67;19.00;;;;;;;;5052695;28;51000;-62
2023/08/18 09:53:59;;;;;;;;;18.67;18.00;;;;;;;;5052678;28;50833;-62
2023/08/18 09:56:27;;;;;;;;;16.33;16.33;;;;;;;;5052039;28;51081;-62
2023/08/18 09:58:55;;;;;;;;;17.00;15.33;;;;;;;;5052315;28;51091;-62
2023/08/18 10:01:23;;;;;;;;;18.00;16.67;;;;;;;;5052266;28;50956;-62
2023/08/18 10:03:49;;;;;;;;;21.67;18.67;;;;;;;;5052204;28;51148;-62
2023/08/18 10:06:16;;;;;;;;;20.00;17.33;;;;;;;;5051751;28;50953;-62
2023/08/18 10:08:41;;;;;;;;;17.67;17.00;;;;;;;;5052161;28;51033;-62
2023/08/18 10:11:07;;;;;;;;;17.33;16.33;;;;;;;;5052281;28;51020;-62
2023/08/18 10:13:33;;;;;;;;;18.33;17.67;;;;;;;;5052167;28;51267;-62
2023/08/18 10:16:00;;;;;;;;;17.00;17.00;;;;;;;;5051976;28;51168;-62
2023/08/18 10:18:25;;;;;;;;;17.67;16.67;;;;;;;;5051678;28;50889;-62
2023/08/18 10:20:51;;;;;;;;;15.00;14.33;;;;;;;;5051919;28;51333;-62
2023/08/18 10:23:16;;;;;;;;;18.33;17.67;;;;;;;;5067423;28;51397;-62
2023/08/18 10:25:43;;;;;;;;;21.75;20.75;;;;;;;;5061541;28;51851;-62
2023/08/18 10:28:08;;;;;;;;;19.50;19.25;;;;;;;;5058936;28;51006;-62
2023/08/18 10:30:33;;;;;;;;;17.33;17.00;;;;;;;;5052807;28;50994;-63
2023/08/18 10:33:04;;;;;;;;;19.00;19.00;;;;;;;;5068181;28;32142;-62
2023/08/18 10:35:29;;;;;;;;;20.00;18.00;;;;;;;;5055211;28;51066;-62
2023/08/18 10:37:55;;;;;;;;;19.00;18.00;;;;;;;;5058305;28;50807;-63
2023/08/18 10:40:22;;;;;;;;;18.33;17.00;;;;;;;;5052293;28;51166;-63
2023/08/18 10:42:47;;;;;;;;;17.00;17.00;;;;;;;;5055014;28;50844;-62
2023/08/18 10:45:22;;;;;;;;;18.00;18.00;;;;;;;;5052740;28;51163;-62
2023/08/18 10:47:47;;;;;;;;;17.00;16.00;;;;;;;;5052398;28;51027;-62
2023/08/18 10:50:14;;;;;;;;;16.33;16.33;;;;;;;;5051794;28;51052;-62
2023/08/18 10:52:40;;;;;;;;;16.00;15.00;;;;;;;;5052075;28;51332;-62
2023/08/18 10:55:05;;;;;;;;;14.00;14.00;;;;;;;;5051433;28;51878;-62
2023/08/18 10:57:30;;;;;;;;;19.00;17.00;;;;;;;;5046952;28;51307;-62
2023/08/18 10:59:56;;;;;;;;;17.33;15.33;;;;;;;;5055272;28;51103;-62
2023/08/18 11:02:21;;;;;;;;;17.00;16.00;;;;;;;;5053956;28;50917;-62
2023/08/18 11:04:46;;;;;;;;;14.33;14.00;;;;;;;;5052461;28;51031;-62
2023/08/18 11:07:11;;;;;;;;;12.00;12.00;;;;;;;;5055220;28;50885;-62
2023/08/18 11:09:37;;;;;;;;;14.00;13.00;;;;;;;;5054942;28;51133;-62
2023/08/18 11:12:06;;;;;;;;;13.67;12.33;;;;;;;;5055036;28;51245;-62
2023/08/18 11:14:31;;;;;;;;;17.33;16.67;;;;;;;;5055023;28;52049;-62
2023/08/18 11:16:56;;;;;;;;;17.00;16.33;;;;;;;;5056717;28;50927;-63
2023/08/18 11:19:22;;;;;;;;;14.33;13.33;;;;;;;;5054613;28;50969;-63
2023/08/18 11:21:47;;;;;;;;;16.67;16.67;;;;;;;;5055097;28;50875;-62
2023/08/18 11:24:12;;;;;;;;;15.00;14.33;;;;;;;;5054504;28;50976;-62
2023/08/18 11:26:39;;;;;;;;;15.00;15.00;;;;;;;;5054865;28;51031;-62
2023/08/18 11:29:04;;;;;;;;;16.67;15.00;;;;;;;;5054402;28;51216;-62
2023/08/18 11:31:30;;;;;;;;;17.33;17.33;;;;;;;;5055126;28;51015;-62
2023/08/18 11:33:55;;;;;;;;;14.33;13.67;;;;;;;;5054130;28;51193;-62
2023/08/18 11:36:21;;;;;;;;;16.00;16.00;;;;;;;;5054826;28;50934;-62
2023/08/18 11:38:48;;;;;;;;;12.33;12.00;;;;;;;;5054678;28;51066;-66
2023/08/18 11:41:14;;;;;;;;;14.67;14.67;;;;;;;;5054626;28;51346;-66
2023/08/18 11:43:39;;;;;;;;;18.25;17.00;;;;;;;;5054342;28;51083;-68
2023/08/18 11:46:04;;;;;;;;;18.75;18.25;;;;;;;;5054407;28;50994;-69
2023/08/18 11:48:30;;;;;;;;;12.67;12.67;;;;;;;;5054119;28;51041;-68
2023/08/18 11:50:56;;;;;;;;;20.00;18.50;;;;;;;;5054905;28;50982;-68
2023/08/18 11:53:23;;;;;;;;;17.00;17.00;;;;;;;;5053915;28;52805;-68
2023/08/18 11:55:48;;;;;;;;;16.67;15.67;;;;;;;;5054261;28;51092;-68
2023/08/18 11:58:14;;;;;;;;;15.33;15.33;;;;;;;;5054222;28;50933;-69
2023/08/18 12:00:41;;;;;;;;;15.67;15.33;;;;;;;;5053331;28;51134;-69
2023/08/18 12:03:07;;;;;;;;;16.67;16.33;;;;;;;;5053888;28;51839;-68
2023/08/18 12:05:36;;;;;;;;;15.00;15.00;;;;;;;;5054237;28;51012;-69
2023/08/18 12:08:04;;;;;;;;;15.00;14.50;;;;;;;;5053677;28;50775;-70
2023/08/18 12:10:29;;;;;;;;;13.67;13.67;;;;;;;;5054156;28;51119;-69
2023/08/18 12:12:56;;;;;;;;;13.00;13.00;;;;;;;;5053445;28;53067;-69
2023/08/18 12:15:23;;;;;;;;;15.67;15.00;;;;;;;;5053624;28;50983;-69
2023/08/18 12:17:48;;;;;;;;;14.00;12.67;;;;;;;;5053368;28;51035;-68
2023/08/18 12:20:13;;;;;;;;;17.67;15.67;;;;;;;;5053759;28;51006;-69
2023/08/18 12:22:39;;;;;;;;;13.67;13.67;;;;;;;;5052167;28;51815;-68
2023/08/18 12:25:05;;;;;;;;;15.33;14.33;;;;;;;;5041839;28;51246;-68
2023/08/18 12:27:30;;;;;;;;;14.00;14.00;;;;;;;;5047062;28;51038;-69
2023/08/18 12:29:56;;;;;;;;;14.33;14.33;;;;;;;;5053569;28;50942;-69
2023/08/18 12:32:21;;;;;;;;;15.67;15.00;;;;;;;;5052882;28;52594;-68
2023/08/18 12:34:50;;;;;;;;;16.33;15.67;;;;;;;;5053189;28;51072;-68
2023/08/18 12:37:15;;;;;;;;;16.33;15.67;;;;;;;;5053638;28;51237;-70
2023/08/18 12:39:42;;;;;;;;;13.67;13.67;;;;;;;;5053764;28;51047;-69
2023/08/18 12:42:07;;;;;;;;;17.00;16.67;;;;;;;;5053665;28;51852;-69
2023/08/18 12:44:32;;;;;;;;;18.00;17.67;;;;;;;;5053697;28;51012;-70
2023/08/18 12:46:57;;;;;;;;;11.00;10.67;;;;;;;;5051799;28;50942;-69
2023/08/18 12:49:24;;;;;;;;;15.33;14.67;;;;;;;;5053670;28;51050;-69
2023/08/18 12:51:49;;;;;;;;;16.33;15.00;;;;;;;;5053064;28;52861;-69
2023/08/18 12:54:15;;;;;;;;;14.33;14.33;;;;;;;;5053296;28;51130;-69
2023/08/18 12:56:41;;;;;;;;;12.67;11.67;;;;;;;;5050551;28;50964;-69
2023/08/18 12:59:06;;;;;;;;;17.33;17.33;;;;;;;;5046259;28;51292;-69
2023/08/18 13:01:34;;;;;;;;;14.33;13.33;;;;;;;;5052435;28;51647;-70
2023/08/18 13:04:00;;;;;;;;;15.67;15.33;;;;;;;;5050289;28;50985;-64
2023/08/18 13:06:25;;;;;;;;;16.50;15.50;;;;;;;;5051927;28;51103;-64
2023/08/18 13:08:50;;;;;;;;;14.33;14.00;;;;;;;;5046595;28;51296;-64
2023/08/18 13:11:16;;;;;;;;;15.33;15.33;;;;;;;;5050837;28;50940;-64
2023/08/18 13:13:41;;;;;;;;;14.00;14.00;;;;;;;;5052273;28;51042;-63
2023/08/18 13:16:06;;;;;;;;;14.33;13.33;;;;;;;;5052461;28;51129;-63
2023/08/18 13:18:32;;;;;;;;;12.00;11.33;;;;;;;;5051250;28;51005;-63
2023/08/18 13:20:58;;;;;;;;;13.00;13.00;;;;;;;;5052412;28;51100;-63
2023/08/18 13:23:23;;;;;;;;;15.00;14.00;;;;;;;;5052522;28;51137;-64
2023/08/18 13:25:50;;;;;;;;;12.67;12.67;;;;;;;;5052748;28;50877;-64
2023/08/18 13:28:16;;;;;;;;;15.00;12.33;;;;;;;;5052864;28;51237;-63
2023/08/18 13:30:41;;;;;;;;;16.00;15.00;;;;;;;;5052331;28;51985;-64
2023/08/18 13:33:07;;;;;;;;;19.33;17.67;;;;;;;;5052256;28;51406;-63
2023/08/18 13:35:32;;;;;;;;;12.00;11.33;;;;;;;;5052974;28;51128;-64
2023/08/18 13:37:57;;;;;;;;;12.33;12.33;;;;;;;;5053030;28;50929;-63
2023/08/18 13:40:23;;;;;;;;;13.00;12.00;;;;;;;;5052542;28;50948;-64
2023/08/18 13:42:48;;;;;;;;;14.00;13.00;;;;;;;;5052228;28;50873;-64
2023/08/18 13:45:14;;;;;;;;;15.67;15.33;;;;;;;;5052642;28;50860;-63
2023/08/18 13:47:39;;;;;;;;;13.00;13.00;;;;;;;;5052391;28;51048;-63
2023/08/18 13:50:04;;;;;;;;;15.00;14.67;;;;;;;;5052371;28;51847;-63
2023/08/18 13:52:30;;;;;;;;;14.33;13.33;;;;;;;;5052219;28;51249;-63
2023/08/18 13:54:55;;;;;;;;;47.25;40.75;;;;;;;;5052341;28;51186;-63
2023/08/18 13:57:22;;;;;;;;;14.00;12.33;;;;;;;;5052322;28;51164;-63
2023/08/18 13:59:47;;;;;;;;;15.00;14.33;;;;;;;;5052206;28;52978;-63
2023/08/18 14:02:12;;;;;;;;;14.00;14.00;;;;;;;;5050607;28;51155;-64
2023/08/18 14:04:37;;;;;;;;;11.00;11.00;;;;;;;;5052394;28;51016;-63
2023/08/18 14:07:03;;;;;;;;;14.67;14.67;;;;;;;;5051900;28;50924;-63
2023/08/18 14:09:28;;;;;;;;;13.67;13.67;;;;;;;;5052075;28;52054;-64
2023/08/18 14:11:53;;;;;;;;;15.33;13.00;;;;;;;;5067923;28;51034;-64